createdAt,value
2019-02-05T00:02:16.827Z,8.13
2019-02-05T00:05:05.693Z,7.85
2019-02-05T00:07:53.876Z,8.03
2019-02-05T00:10:42.081Z,6.92
2019-02-05T00:13:30.162Z,7.78
2019-02-05T00:16:18.610Z,7.37
2019-02-05T00:19:07.250Z,8.03
2019-02-05T00:21:54.971Z,7.95
2019-02-05T00:24:43.191Z,9.00
2019-02-05T00:27:31.404Z,8.58
2019-02-05T00:30:19.581Z,8.05
2019-02-05T00:33:08.479Z,8.40
2019-02-05T00:35:56.606Z,8.45
2019-02-05T00:38:44.390Z,8.38
2019-02-05T00:41:32.482Z,9.28
2019-02-05T00:44:20.538Z,7.70
2019-02-05T00:47:09.303Z,7.92
2019-02-05T00:49:57.394Z,9.25
2019-02-05T00:52:45.787Z,7.50
2019-02-05T00:55:34.902Z,9.60
2019-02-05T00:58:23.484Z,9.15
2019-02-05T01:01:11.361Z,8.23
2019-02-05T01:04:00.120Z,8.08
2019-02-05T01:06:48.552Z,7.30
2019-02-05T01:09:37.082Z,8.85
2019-02-05T01:12:26.012Z,7.35
2019-02-05T01:15:15.951Z,8.25
2019-02-05T01:18:05.010Z,9.90
2019-02-05T01:20:53.374Z,7.22
2019-02-05T01:23:41.329Z,8.08
2019-02-05T01:26:30.966Z,8.15
2019-02-05T01:29:19.658Z,7.97
2019-02-05T01:32:08.298Z,7.67
2019-02-05T01:34:56.504Z,8.95
2019-02-05T01:37:44.429Z,11.00
2019-02-05T01:40:32.230Z,8.78
2019-02-05T01:43:21.150Z,7.92
2019-02-05T01:46:09.561Z,9.60
2019-02-05T01:48:58.255Z,9.68
2019-02-05T01:51:46.544Z,9.25
2019-02-05T01:54:35.260Z,11.38
2019-02-05T01:57:23.564Z,8.58
2019-02-05T02:00:14.989Z,9.65
2019-02-05T02:03:04.298Z,8.50
2019-02-05T02:05:52.618Z,10.00
2019-02-05T02:08:40.611Z,9.08
2019-02-05T02:11:28.619Z,8.90
2019-02-05T02:14:16.782Z,8.78
2019-02-05T02:17:04.726Z,9.30
2019-02-05T02:19:52.357Z,9.08
2019-02-05T02:22:40.712Z,9.80
2019-02-05T02:25:28.643Z,8.28
2019-02-05T02:28:19.130Z,9.05
2019-02-05T02:31:07.054Z,9.25
2019-02-05T02:33:55.022Z,9.80
2019-02-05T02:36:43.894Z,10.53
2019-02-05T02:39:32.418Z,11.93
2019-02-05T02:42:20.490Z,10.45
2019-02-05T02:45:10.557Z,9.58
2019-02-05T02:47:59.018Z,10.50
2019-02-05T02:50:47.965Z,10.80
2019-02-05T02:53:37.370Z,11.57
2019-02-05T02:56:25.599Z,12.05
2019-02-05T02:59:14.050Z,10.70
2019-02-05T03:02:02.072Z,11.85
2019-02-05T03:04:50.640Z,9.85
2019-02-05T03:07:38.799Z,10.53
2019-02-05T03:10:29.304Z,11.57
2019-02-05T03:13:17.438Z,11.18
2019-02-05T03:16:06.891Z,11.68
2019-02-05T03:18:55.297Z,10.45
2019-02-05T03:21:43.179Z,13.80
2019-02-05T03:24:31.524Z,13.15
2019-02-05T03:27:20.071Z,13.98
2019-02-05T03:30:15.190Z,11.65
2019-02-05T03:33:03.728Z,10.63
2019-02-05T03:35:52.032Z,13.55
2019-02-05T03:38:40.514Z,12.80
2019-02-05T03:41:28.677Z,11.15
2019-02-05T03:44:16.715Z,9.83
2019-02-05T03:47:04.958Z,12.98
2019-02-05T03:49:54.387Z,10.48
2019-02-05T03:52:51.563Z,12.33
2019-02-05T03:55:56.027Z,10.43
2019-02-05T03:59:12.987Z,11.73
2019-02-05T04:02:43.535Z,10.72
2019-02-05T04:06:04.477Z,12.00
2019-02-05T04:09:25.298Z,12.40
2019-02-05T04:12:36.952Z,10.35
2019-02-05T04:15:57.926Z,10.95
2019-02-05T04:18:59.239Z,10.13
2019-02-05T04:22:10.736Z,11.73
2019-02-05T04:25:24.111Z,11.18
2019-02-05T04:28:55.001Z,11.68
2019-02-05T04:32:03.844Z,13.90
2019-02-05T04:35:24.693Z,13.48
2019-02-05T04:38:51.286Z,12.95
2019-02-05T04:42:03.851Z,11.93
2019-02-05T04:45:04.932Z,11.18
2019-02-05T04:48:38.913Z,13.13
2019-02-05T04:55:25.785Z,12.85
2019-02-05T04:58:50.838Z,11.15
2019-02-05T05:01:59.746Z,11.03
2019-02-05T05:08:40.924Z,14.75
2019-02-05T05:11:29.209Z,14.47
2019-02-05T05:14:17.487Z,12.13
2019-02-05T05:17:05.635Z,13.53
2019-02-05T05:19:54.388Z,11.45
2019-02-05T05:22:42.917Z,12.03
2019-02-05T05:25:31.563Z,13.48
2019-02-05T05:28:20.351Z,11.43
2019-02-05T05:31:08.678Z,12.00
2019-02-05T05:33:57.307Z,12.23
2019-02-05T05:36:50.313Z,11.70
2019-02-05T05:39:38.247Z,11.70
2019-02-05T05:42:26.681Z,12.18
2019-02-05T05:45:15.999Z,11.33
2019-02-05T05:48:04.274Z,12.23
2019-02-05T05:50:53.072Z,12.82
2019-02-05T05:53:40.983Z,10.68
2019-02-05T05:56:29.130Z,11.50
2019-02-05T05:59:17.310Z,12.33
2019-02-05T06:02:05.846Z,12.20
2019-02-05T06:04:53.646Z,11.30
2019-02-05T06:07:41.728Z,11.88
2019-02-05T06:10:36.911Z,11.93
2019-02-05T06:13:24.946Z,12.43
2019-02-05T06:16:14.100Z,13.90
2019-02-05T06:19:02.195Z,13.40
2019-02-05T06:21:50.841Z,13.20
2019-02-05T06:24:39.752Z,13.00
2019-02-05T06:27:28.015Z,14.15
2019-02-05T06:30:16.992Z,13.62
2019-02-05T06:33:04.979Z,13.30
2019-02-05T06:35:54.166Z,14.10
2019-02-05T06:38:44.574Z,12.95
2019-02-05T06:41:32.606Z,11.80
2019-02-05T06:44:21.227Z,14.05
2019-02-05T06:47:09.385Z,12.95
2019-02-05T06:50:00.595Z,13.45
2019-02-05T06:52:50.221Z,14.23
2019-02-05T06:55:37.866Z,14.75
2019-02-05T06:58:28.077Z,13.88
2019-02-05T07:01:17.836Z,12.30
2019-02-05T07:04:08.020Z,14.55
2019-02-05T07:06:56.110Z,13.83
2019-02-05T07:09:44.138Z,13.88
2019-02-05T07:12:32.276Z,13.38
2019-02-05T07:15:20.735Z,13.78
2019-02-05T07:18:08.878Z,13.30
2019-02-05T07:23:51.818Z,14.70
2019-02-05T07:26:40.126Z,13.53
2019-02-05T07:29:28.578Z,15.48
2019-02-05T07:35:05.236Z,14.00
2019-02-05T07:37:53.416Z,14.13
2019-02-05T07:40:42.071Z,13.62
2019-02-05T07:43:30.750Z,14.30
2019-02-05T07:46:19.596Z,13.88
2019-02-05T07:49:07.626Z,15.45
2019-02-05T07:51:59.748Z,12.20
2019-02-05T07:54:47.667Z,13.58
2019-02-05T07:57:36.535Z,15.13
2019-02-05T08:00:27.383Z,14.20
2019-02-05T08:03:15.946Z,14.03
2019-02-05T08:06:04.987Z,13.22
2019-02-05T08:08:53.586Z,15.88
2019-02-05T08:11:41.717Z,12.90
2019-02-05T08:14:30.154Z,12.33
2019-02-05T08:17:18.877Z,12.65
2019-02-05T08:20:07.715Z,15.70
2019-02-05T08:22:56.630Z,12.78
2019-02-05T08:25:44.853Z,14.10
2019-02-05T08:28:40.679Z,13.48
2019-02-05T08:31:23.357Z,14.15
2019-02-05T08:34:11.634Z,14.15
2019-02-05T08:37:00.019Z,12.43
2019-02-05T08:39:47.643Z,13.20
2019-02-05T08:42:36.154Z,13.35
2019-02-05T08:45:26.474Z,13.55
2019-02-05T08:48:15.026Z,11.43
2019-02-05T08:51:03.311Z,13.35
2019-02-05T08:53:50.470Z,12.68
2019-02-05T08:56:39.710Z,14.55
2019-02-05T08:59:27.474Z,12.00
2019-02-05T09:02:15.969Z,12.25
2019-02-05T09:05:08.185Z,13.50
2019-02-05T09:07:56.423Z,13.85
2019-02-05T09:10:45.200Z,12.93
2019-02-05T09:13:34.434Z,14.47
2019-02-05T09:16:28.297Z,13.22
2019-02-05T09:19:18.008Z,15.18
2019-02-05T09:22:07.069Z,14.45
2019-02-05T09:24:55.522Z,13.95
2019-02-05T09:27:44.427Z,15.05
2019-02-05T09:30:33.998Z,13.05
2019-02-05T09:33:23.013Z,15.72
2019-02-05T09:36:11.291Z,14.58
2019-02-05T09:39:00.242Z,13.15
2019-02-05T09:41:48.259Z,13.55
2019-02-05T09:44:36.558Z,13.83
2019-02-05T09:47:25.283Z,14.53
2019-02-05T09:50:19.428Z,14.78
2019-02-05T09:53:07.840Z,15.10
2019-02-05T09:55:56.034Z,12.28
2019-02-05T09:58:46.239Z,16.82
2019-02-05T10:01:35.775Z,14.25
2019-02-05T10:04:24.659Z,14.65
2019-02-05T10:07:12.898Z,13.68
2019-02-05T10:10:00.657Z,13.67
2019-02-05T10:12:49.516Z,13.55
2019-02-05T10:15:38.577Z,13.53
2019-02-05T10:18:27.281Z,14.20
2019-02-05T10:21:15.619Z,12.88
2019-02-05T10:24:04.854Z,17.00
2019-02-05T10:26:52.828Z,16.25
2019-02-05T10:29:41.199Z,13.47
2019-02-05T10:32:34.109Z,14.07
2019-02-05T10:35:22.699Z,14.37
2019-02-05T10:38:11.080Z,14.90
2019-02-05T10:40:59.541Z,14.63
2019-02-05T10:43:48.177Z,12.87
2019-02-05T10:46:36.754Z,14.20
2019-02-05T10:49:24.866Z,13.17
2019-02-05T10:52:13.623Z,13.90
2019-02-05T10:55:02.491Z,13.57
2019-02-05T10:57:51.226Z,13.87
2019-02-05T11:00:41.500Z,12.93
2019-02-05T11:03:29.842Z,12.27
2019-02-05T11:06:20.171Z,13.47
2019-02-05T11:09:10.418Z,13.00
2019-02-05T11:11:58.597Z,14.00
2019-02-05T11:14:46.638Z,11.90
2019-02-05T11:17:34.973Z,13.70
2019-02-05T11:20:24.426Z,13.80
2019-02-05T11:23:19.782Z,13.20
2019-02-05T11:26:07.946Z,14.70
2019-02-05T11:28:56.298Z,12.80
2019-02-05T11:31:44.136Z,12.07
2019-02-05T11:34:32.835Z,13.80
2019-02-05T11:37:21.384Z,14.60
2019-02-05T11:40:12.711Z,13.13
2019-02-05T11:43:01.342Z,13.90
2019-02-05T11:45:50.222Z,14.00
2019-02-05T11:48:38.650Z,12.27
2019-02-05T11:51:26.676Z,13.87
2019-02-05T11:54:15.556Z,13.03
2019-02-05T11:57:03.881Z,11.80
2019-02-05T11:59:51.826Z,13.17
2019-02-05T12:02:40.101Z,12.60
2019-02-05T12:05:28.761Z,14.47
2019-02-05T12:08:18.723Z,13.67
2019-02-05T12:11:07.493Z,12.87
2019-02-05T12:13:56.973Z,12.23
2019-02-05T12:17:13.131Z,12.43
2019-02-05T12:20:02.497Z,12.57
2019-02-05T12:23:08.195Z,12.13
2019-02-05T12:25:56.223Z,11.47
2019-02-05T12:28:44.832Z,12.97
2019-02-05T12:31:34.172Z,12.90
2019-02-05T12:34:22.654Z,12.00
2019-02-05T12:37:10.957Z,12.37
2019-02-05T12:39:58.921Z,11.47
2019-02-05T12:42:47.734Z,13.27
2019-02-05T12:45:36.069Z,14.07
2019-02-05T12:48:25.995Z,11.00
2019-02-05T12:51:15.086Z,11.60
2019-02-05T12:54:04.534Z,13.27
2019-02-05T12:56:54.054Z,13.00
2019-02-05T12:59:44.681Z,10.93
2019-02-05T13:02:33.323Z,13.30
2019-02-05T13:05:22.225Z,13.53
2019-02-05T13:08:10.411Z,13.57
2019-02-05T13:10:58.762Z,11.90
2019-02-05T13:13:48.029Z,13.00
2019-02-05T13:16:36.175Z,14.53
2019-02-05T13:19:25.691Z,12.77
2019-02-05T13:22:14.918Z,12.33
2019-02-05T13:25:03.081Z,13.00
2019-02-05T13:27:52.726Z,12.13
2019-02-05T13:30:41.598Z,11.73
2019-02-05T13:33:30.131Z,11.77
2019-02-05T13:36:22.745Z,11.90
2019-02-05T13:39:13.120Z,14.17
2019-02-05T13:42:02.440Z,11.93
2019-02-05T13:44:50.694Z,12.40
2019-02-05T13:47:43.554Z,12.43
2019-02-05T13:50:40.842Z,12.47
2019-02-05T13:53:28.042Z,12.70
2019-02-05T13:56:16.883Z,12.80
2019-02-05T13:59:06.026Z,12.87
2019-02-05T14:01:55.017Z,14.50
2019-02-05T14:04:44.310Z,13.40
2019-02-05T14:07:33.611Z,12.43
2019-02-05T14:10:25.627Z,13.40
2019-02-05T14:13:15.366Z,14.37
2019-02-05T14:16:06.345Z,12.47
2019-02-05T14:18:57.262Z,12.53
2019-02-05T14:21:46.007Z,11.40
2019-02-05T14:24:35.673Z,12.77
2019-02-05T14:27:24.447Z,13.43
2019-02-05T14:30:17.414Z,14.57
2019-02-05T14:33:06.674Z,14.27
2019-02-05T14:35:55.306Z,13.10
2019-02-05T14:38:43.894Z,12.93
2019-02-05T14:41:32.685Z,13.70
2019-02-05T14:44:22.608Z,14.80
2019-02-05T14:47:12.050Z,13.20
2019-02-05T14:50:01.514Z,13.60
2019-02-05T14:52:50.314Z,12.87
2019-02-05T14:55:39.131Z,14.10
2019-02-05T14:58:27.998Z,13.03
2019-02-05T15:01:17.310Z,13.33
2019-02-05T15:04:07.214Z,13.30
2019-02-05T15:06:56.257Z,14.33
2019-02-05T15:09:45.115Z,14.70
2019-02-05T15:12:32.988Z,14.70
2019-02-05T15:15:20.970Z,12.30
2019-02-05T15:18:13.747Z,12.83
2019-02-05T15:21:07.248Z,14.07
2019-02-05T15:23:57.649Z,13.47
2019-02-05T15:26:45.611Z,12.77
2019-02-05T15:29:34.347Z,14.20
2019-02-05T15:32:47.257Z,12.33
2019-02-05T15:35:36.499Z,13.00
2019-02-05T15:38:25.326Z,14.90
2019-02-05T15:41:14.162Z,14.93
2019-02-05T15:44:02.715Z,14.40
2019-02-05T15:46:52.561Z,13.70
2019-02-05T15:49:40.993Z,13.13
2019-02-05T15:52:31.035Z,14.80
2019-02-05T15:55:21.125Z,13.37
2019-02-05T15:58:10.109Z,14.03
2019-02-05T16:00:58.825Z,14.93
2019-02-05T16:03:47.709Z,14.70
2019-02-05T16:06:36.529Z,13.03
2019-02-05T16:09:26.068Z,13.33
2019-02-05T16:12:15.175Z,14.37
2019-02-05T16:15:05.155Z,14.40
2019-02-05T16:17:53.870Z,14.40
2019-02-05T16:20:43.267Z,14.27
2019-02-05T16:23:31.874Z,15.40
2019-02-05T16:26:21.203Z,16.10
2019-02-05T16:29:10.212Z,14.30
2019-02-05T16:31:59.639Z,13.07
2019-02-05T16:34:48.423Z,14.30
2019-02-05T16:37:36.942Z,15.17
2019-02-05T16:40:27.035Z,12.30
2019-02-05T16:43:16.371Z,13.00
2019-02-05T16:46:05.386Z,14.10
2019-02-05T16:48:54.166Z,13.63
2019-02-05T16:54:45.586Z,15.27
2019-02-05T16:57:34.223Z,12.20
2019-02-05T17:00:33.465Z,12.20
2019-02-05T17:03:22.658Z,14.43
2019-02-05T17:06:10.554Z,14.30
2019-02-05T17:08:59.003Z,13.57
2019-02-05T17:11:48.177Z,19.00
2019-02-05T17:14:36.294Z,15.97
2019-02-05T17:17:26.322Z,14.03
2019-02-05T17:20:18.395Z,14.50
2019-02-05T17:23:08.098Z,16.00
2019-02-05T17:25:57.301Z,13.95
2019-02-05T17:28:47.125Z,14.65
2019-02-05T17:31:37.011Z,14.13
2019-02-05T17:34:26.339Z,14.90
2019-02-05T17:40:12.273Z,15.43
2019-02-05T17:43:01.672Z,16.17
2019-02-05T17:45:51.351Z,14.37
2019-02-05T17:48:40.532Z,16.15
2019-02-05T17:51:30.785Z,14.40
2019-02-05T17:54:19.799Z,16.77
2019-02-05T17:57:10.054Z,15.60
2019-02-05T17:59:59.645Z,15.80
2019-02-05T18:02:51.560Z,14.30
2019-02-05T18:05:41.460Z,16.20
2019-02-05T18:08:30.141Z,15.20
2019-02-05T18:11:19.891Z,14.95
2019-02-05T18:14:08.459Z,15.83
2019-02-05T18:16:57.219Z,14.55
2019-02-05T18:19:47.238Z,15.27
2019-02-05T18:22:39.316Z,17.27
2019-02-05T18:25:29.049Z,15.25
2019-02-05T18:28:17.968Z,16.37
2019-02-05T18:31:06.573Z,13.50
2019-02-05T18:33:55.970Z,13.30
2019-02-05T18:36:45.166Z,16.83
2019-02-05T18:39:32.587Z,18.30
2019-02-05T18:42:20.802Z,14.93
2019-02-05T18:45:10.847Z,15.72
2019-02-05T18:48:01.005Z,16.77
2019-02-05T18:50:50.520Z,18.03
2019-02-05T18:53:39.229Z,17.23
2019-02-05T18:56:28.303Z,17.95
2019-02-05T18:59:18.321Z,21.80
2019-02-05T19:02:07.287Z,16.07
2019-02-05T19:04:57.647Z,18.62
2019-02-05T19:07:46.425Z,15.80
2019-02-05T19:10:35.541Z,14.43
2019-02-05T19:13:24.634Z,17.05
2019-02-05T19:16:12.641Z,15.80
2019-02-05T19:19:14.271Z,16.17
2019-02-05T19:21:55.035Z,15.13
2019-02-05T19:24:51.129Z,17.37
2019-02-05T19:27:40.359Z,16.45
2019-02-05T19:30:31.026Z,17.02
2019-02-05T19:33:27.133Z,16.32
2019-02-05T19:36:11.816Z,15.32
2019-02-05T19:39:02.329Z,15.45
2019-02-05T19:41:51.893Z,16.97
2019-02-05T19:44:43.416Z,17.02
2019-02-05T19:47:34.699Z,16.60
2019-02-05T19:50:24.592Z,16.82
2019-02-05T19:53:15.005Z,15.18
2019-02-05T19:56:06.039Z,16.93
2019-02-05T19:58:55.485Z,15.60
2019-02-05T20:01:44.053Z,15.83
2019-02-05T20:04:33.803Z,16.00
2019-02-05T20:07:23.581Z,15.80
2019-02-05T20:10:13.391Z,15.43
2019-02-05T20:13:02.583Z,15.95
2019-02-05T20:15:51.329Z,15.80
2019-02-05T20:18:39.034Z,17.02
2019-02-05T20:21:27.677Z,17.57
2019-02-05T20:24:18.650Z,16.40
2019-02-05T20:27:07.166Z,18.65
2019-02-05T20:29:56.429Z,17.35
2019-02-05T20:32:45.142Z,15.58
2019-02-05T20:35:36.413Z,17.37
2019-02-05T20:38:26.001Z,15.05
2019-02-05T20:41:15.402Z,17.35
2019-02-05T20:44:05.669Z,16.20
2019-02-05T20:46:56.233Z,17.02
2019-02-05T20:49:46.564Z,15.58
2019-02-05T20:52:35.835Z,16.32
2019-02-05T20:55:25.721Z,16.23
2019-02-05T20:58:14.005Z,16.93
2019-02-05T21:01:04.922Z,17.17
2019-02-05T21:04:01.347Z,16.85
2019-02-05T21:06:45.862Z,19.07
2019-02-05T21:09:42.163Z,16.75
2019-02-05T21:12:30.144Z,19.67
2019-02-05T21:15:19.339Z,15.50
2019-02-05T21:18:08.626Z,20.97
2019-02-05T21:20:58.168Z,17.77
2019-02-05T21:23:47.594Z,15.98
2019-02-05T21:26:36.668Z,18.30
2019-02-05T21:29:30.662Z,15.58
2019-02-05T21:32:19.316Z,17.55
2019-02-05T21:35:10.332Z,14.95
2019-02-05T21:37:59.062Z,14.98
2019-02-05T21:40:47.426Z,15.48
2019-02-05T21:43:35.682Z,16.80
2019-02-05T21:46:26.669Z,15.10
2019-02-05T21:49:15.954Z,14.83
2019-02-05T21:52:06.206Z,18.23
2019-02-05T21:54:55.818Z,18.12
2019-02-05T21:57:44.134Z,16.75
2019-02-05T22:00:33.539Z,15.85
2019-02-05T22:03:22.196Z,15.68
2019-02-05T22:06:12.956Z,16.40
2019-02-05T22:09:02.301Z,18.30
2019-02-05T22:11:51.682Z,17.67
2019-02-05T22:14:40.178Z,16.17
2019-02-05T22:17:29.602Z,18.30
2019-02-05T22:20:19.834Z,18.32
2019-02-05T22:23:08.476Z,15.45
2019-02-05T22:25:57.051Z,17.42
2019-02-05T22:28:45.170Z,17.05
2019-02-05T22:31:33.028Z,16.48
2019-02-05T22:34:21.680Z,19.70
2019-02-05T22:37:10.527Z,16.85
2019-02-05T22:39:58.999Z,16.73
2019-02-05T22:42:47.171Z,20.23
2019-02-05T22:45:42.007Z,17.92
2019-02-05T22:48:30.735Z,17.17
2019-02-05T22:51:19.803Z,14.58
2019-02-05T22:54:08.026Z,16.35
2019-02-05T22:56:56.495Z,15.90
2019-02-05T22:59:45.142Z,18.25
2019-02-05T23:02:32.829Z,19.60
2019-02-05T23:05:39.305Z,15.20
2019-02-05T23:08:27.366Z,13.45
2019-02-05T23:11:44.261Z,17.80
2019-02-05T23:14:32.825Z,16.00
2019-02-05T23:17:22.190Z,14.90
2019-02-05T23:20:13.631Z,15.43
2019-02-05T23:23:02.558Z,18.52
2019-02-05T23:25:51.495Z,18.27
2019-02-05T23:28:39.467Z,19.82
2019-02-05T23:31:28.112Z,15.98
2019-02-05T23:34:16.822Z,16.25
2019-02-05T23:37:05.465Z,13.25
2019-02-05T23:39:53.538Z,14.63
2019-02-05T23:42:42.253Z,16.70
2019-02-05T23:48:31.454Z,16.80
2019-02-05T23:51:20.003Z,14.98
2019-02-05T23:54:08.490Z,18.42
2019-02-05T23:56:56.887Z,18.87
2019-02-05T23:59:44.795Z,18.40
